Time;durP1;ratioP1;P1;durP2;ratioP2;P2;SDS_P1;SDS_P2;PMS_P1;PMS_P2;Temp;Humidity;BMP_temperature;BMP_pressure;BME280_temperature;BME280_humidity;BME280_pressure;Samples;Min_cycle;Max_cycle;Signal;HPM_P1;HPM_P2
2022/11/26 00:01:20;;;;;;;22.48;9.07;;;;;;;9.27;69.01;100645.94;5013058;28;20948;-81
2022/11/26 00:03:48;;;;;;;16.85;8.18;;;;;;;9.25;69.29;100643.41;5012851;28;20061;-81
2022/11/26 00:06:20;;;;;;;22.88;8.05;;;;;;;9.20;70.20;100642.69;5012729;28;20058;-81
2022/11/26 00:08:47;;;;;;;16.52;8.02;;;;;;;9.23;69.17;100652.22;5012916;28;20054;-81
2022/11/26 00:11:14;;;;;;;14.75;8.18;;;;;;;9.21;69.22;100657.56;4995386;28;20054;-81
2022/11/26 00:13:41;;;;;;;17.83;8.35;;;;;;;9.21;69.16;100659.31;4995174;28;20077;-81
2022/11/26 00:16:11;;;;;;;18.25;8.30;;;;;;;9.19;69.24;100653.28;5012520;28;20054;-81
2022/11/26 00:18:38;;;;;;;15.30;8.20;;;;;;;9.19;69.55;100655.91;5012755;28;20123;-81
2022/11/26 00:21:09;;;;;;;20.60;9.32;;;;;;;9.17;69.52;100661.22;5012841;28;20057;-81
2022/11/26 00:23:36;;;;;;;22.92;9.55;;;;;;;9.17;69.38;100666.47;5012578;28;20053;-81
2022/11/26 00:26:03;;;;;;;22.17;9.35;;;;;;;9.16;69.51;100667.34;5012641;28;20049;-81
2022/11/26 00:28:33;;;;;;;24.65;9.68;;;;;;;9.15;69.74;100670.91;4994872;28;20061;-81
2022/11/26 00:31:02;;;;;;;22.25;9.48;;;;;;;9.15;69.46;100683.19;5012266;28;20065;-81
2022/11/26 00:33:29;;;;;;;23.13;9.20;;;;;;;9.15;69.27;100678.78;5012440;28;20116;-81
2022/11/26 00:36:01;;;;;;;22.38;9.52;;;;;;;9.14;69.63;100677.09;4994777;28;20058;-81
2022/11/26 00:38:28;;;;;;;19.80;9.25;;;;;;;9.14;69.62;100682.34;5012224;28;20112;-81
2022/11/26 00:40:56;;;;;;;25.08;9.45;;;;;;;9.13;69.61;100680.63;5012332;28;20374;-81
2022/11/26 00:43:22;;;;;;;26.00;10.40;;;;;;;9.12;69.52;100692.03;5012115;28;20053;-81
2022/11/26 00:45:49;;;;;;;20.85;10.30;;;;;;;9.11;69.52;100690.31;5011796;28;20061;-81
2022/11/26 00:48:17;;;;;;;19.15;10.07;;;;;;;9.13;69.89;100699.00;4994744;28;20050;-81
2022/11/26 00:50:48;;;;;;;23.52;10.93;;;;;;;9.13;70.28;100699.00;5012187;28;20412;-81
2022/11/26 00:53:19;;;;;;;18.95;9.27;;;;;;;9.13;70.08;100706.91;4994513;28;20054;-81
2022/11/26 00:55:48;;;;;;;19.95;9.70;;;;;;;9.14;70.28;100692.84;5011705;28;20058;-81
2022/11/26 00:58:22;;;;;;;20.65;9.02;;;;;;;9.15;70.58;100697.19;5012093;28;20397;-81
2022/11/26 01:00:50;;;;;;;21.20;9.55;;;;;;;9.19;69.67;100704.03;4994529;28;20054;-81
2022/11/26 01:03:17;;;;;;;17.08;9.75;;;;;;;9.20;69.66;100705.75;5011713;28;20571;-81
2022/11/26 01:05:44;;;;;;;21.13;10.45;;;;;;;9.20;69.76;100712.78;4994243;28;20057;-80
2022/11/26 01:08:33;;;;;;;18.58;8.95;;;;;;;9.17;70.64;100726.88;5011647;28;20057;-81
2022/11/26 01:11:01;;;;;;;21.00;9.38;;;;;;;9.21;69.72;100725.88;4994207;28;20054;-81
2022/11/26 01:13:28;;;;;;;18.10;9.23;;;;;;;9.20;69.66;100732.00;5011587;28;20057;-81
2022/11/26 01:15:57;;;;;;;22.70;9.75;;;;;;;9.21;69.81;100730.25;5011538;28;20124;-80
2022/11/26 01:18:24;;;;;;;19.42;8.77;;;;;;;9.21;69.88;100733.75;4993976;28;20050;-81
2022/11/26 01:20:50;;;;;;;16.42;9.18;;;;;;;9.22;69.49;100747.72;4994039;28;20104;-81
2022/11/26 01:23:18;;;;;;;17.88;9.63;;;;;;;9.21;69.83;100741.63;5011526;28;20074;-81
2022/11/26 01:25:46;;;;;;;17.20;8.75;;;;;;;9.21;69.69;100749.50;4994012;28;20058;-81
2022/11/26 01:28:15;;;;;;;16.60;9.23;;;;;;;9.20;70.03;100753.03;5011057;28;20534;-81
2022/11/26 01:30:42;;;;;;;18.17;9.43;;;;;;;9.22;69.74;100753.84;4994014;28;20136;-81
2022/11/26 01:33:09;;;;;;;15.57;8.65;;;;;;;9.21;69.88;100757.41;5011192;28;20058;-81
2022/11/26 01:35:36;;;;;;;24.05;9.52;;;;;;;9.21;69.74;100757.41;4993650;28;20057;-81
2022/11/26 01:38:03;;;;;;;18.05;7.88;;;;;;;9.22;69.60;100761.72;5010800;28;20562;-81
2022/11/26 01:40:58;;;;;;;21.25;8.52;;;;;;;9.18;70.14;100754.88;5011095;28;20058;-81
2022/11/26 01:43:40;;;;;;;24.05;9.32;;;;;;;9.19;69.93;100767.09;5011021;28;20061;-81
2022/11/26 01:46:15;;;;;;;23.05;8.85;;;;;;;9.19;69.70;100771.50;5010887;28;20049;-81
2022/11/26 01:48:42;;;;;;;22.42;8.68;;;;;;;9.20;69.36;100767.94;5010930;28;20116;-81
2022/11/26 01:51:11;;;;;;;18.67;8.73;;;;;;;9.18;69.43;100760.13;5011041;28;20066;-81
2022/11/26 01:53:51;;;;;;;15.52;7.70;;;;;;;9.13;69.93;100775.19;5010628;28;20057;-81
2022/11/26 01:56:25;;;;;;;18.73;8.50;;;;;;;9.16;69.42;100775.06;4992959;28;20065;-81
2022/11/26 01:59:06;;;;;;;21.40;7.78;;;;;;;9.12;70.14;100773.44;4992956;28;20057;-81
2022/11/26 02:01:33;;;;;;;20.95;8.13;;;;;;;9.14;69.36;100774.28;5010867;28;20116;-81
2022/11/26 02:04:20;;;;;;;22.25;8.15;;;;;;;9.09;70.41;100773.56;5010660;28;20054;-80
2022/11/26 02:06:48;;;;;;;19.23;7.93;;;;;;;9.12;69.67;100779.56;5010193;28;20058;-80
2022/11/26 02:09:16;;;;;;;23.05;7.57;;;;;;;9.13;69.47;100780.44;5010564;28;20054;-81
2022/11/26 02:11:43;;;;;;;19.95;8.45;;;;;;;9.10;69.75;100783.16;5010733;28;20439;-80
2022/11/26 02:14:16;;;;;;;20.98;8.80;;;;;;;9.09;69.94;100778.84;5010584;28;20468;-81
2022/11/26 02:17:07;;;;;;;18.48;8.60;;;;;;;9.08;70.77;100782.38;5010306;28;20054;-80
2022/11/26 02:20:09;;;;;;;19.33;8.50;;;;;;;9.09;70.48;100781.47;5010583;28;20389;-81
2022/11/26 02:22:53;;;;;;;18.42;8.85;;;;;;;9.07;70.66;100780.63;5010435;28;20148;-81
2022/11/26 02:25:44;;;;;;;15.88;7.95;;;;;;;9.08;70.23;100785.00;5010212;28;20385;-80
2022/11/26 02:28:20;;;;;;;15.27;8.63;;;;;;;9.06;69.97;100792.94;5009991;28;20050;-80
2022/11/26 02:30:52;;;;;;;18.70;9.18;;;;;;;9.06;69.70;100802.56;5010447;28;20137;-80
2022/11/26 02:33:40;;;;;;;18.17;8.75;;;;;;;9.02;70.20;100800.94;5010205;28;20046;-80
2022/11/26 02:36:13;;;;;;;19.00;8.75;;;;;;;9.03;69.59;100802.66;5010109;28;20136;-81
2022/11/26 02:38:40;;;;;;;15.30;8.05;;;;;;;9.02;69.18;100800.94;5009955;28;20050;-81
2022/11/26 02:41:07;;;;;;;19.80;8.93;;;;;;;8.98;69.19;100803.66;5009954;28;20061;-81
2022/11/26 02:43:36;;;;;;;20.30;9.38;;;;;;;8.97;69.18;100807.22;5010446;28;20459;-81
2022/11/26 02:46:11;;;;;;;19.13;8.82;;;;;;;8.93;69.76;100808.22;5009873;28;20058;-80
2022/11/26 02:48:41;;;;;;;28.23;9.70;;;;;;;8.93;69.40;100802.13;5009783;28;20057;-81
2022/11/26 02:51:21;;;;;;;39.85;9.13;;;;;;;8.89;70.06;100800.53;4992701;28;20050;-81
2022/11/26 02:53:49;;;;;;;25.92;9.65;;;;;;;8.92;69.25;100797.78;5009628;28;20069;-80
2022/11/26 02:56:20;;;;;;;21.55;10.13;;;;;;;8.89;69.73;100803.97;5009584;28;20058;-81
2022/11/26 02:58:48;;;;;;;21.33;10.35;;;;;;;8.85;69.09;100797.97;5009729;28;20058;-81
2022/11/26 03:01:33;;;;;;;47.80;11.23;;;;;;;8.79;69.78;100798.16;4992389;28;20112;-81
2022/11/26 03:04:06;;;;;;;45.40;10.88;;;;;;;8.73;69.22;100799.25;5009777;28;20058;-81
2022/11/26 03:06:33;;;;;;;196.13;16.33;;;;;;;8.69;69.17;100797.63;5009596;28;20094;-81
2022/11/26 03:09:00;;;;;;;283.48;15.50;;;;;;;8.64;69.02;100796.06;5009407;28;20057;-81
2022/11/26 03:11:28;;;;;;;240.75;14.73;;;;;;;8.57;69.29;100791.00;5009467;28;20077;-81
2022/11/26 03:13:54;;;;;;;232.00;13.60;;;;;;;8.51;69.36;100793.78;5009447;28;20415;-81
2022/11/26 03:16:21;;;;;;;312.25;15.63;;;;;;;8.46;69.66;100793.09;4992106;28;20061;-81
2022/11/26 03:18:47;;;;;;;269.67;14.07;;;;;;;8.42;69.75;100799.31;5009281;28;20504;-81
2022/11/26 03:21:14;;;;;;;202.38;13.27;;;;;;;8.37;69.64;100793.38;5009799;28;20057;-81
2022/11/26 03:23:40;;;;;;;207.70;13.13;;;;;;;8.33;69.77;100792.59;5009311;28;20467;-81
2022/11/26 03:26:07;;;;;;;250.13;14.55;;;;;;;8.29;70.11;100799.69;5009368;28;20054;-81
2022/11/26 03:28:33;;;;;;;214.30;14.63;;;;;;;8.25;69.94;100798.06;5009622;28;20087;-80
2022/11/26 03:30:59;;;;;;;283.75;16.77;;;;;;;8.22;69.95;100792.91;4992167;28;20401;-81
2022/11/26 03:33:26;;;;;;;152.98;10.05;;;;;;;8.19;70.25;100790.41;4992413;28;20463;-81
2022/11/26 03:35:52;;;;;;;155.00;11.52;;;;;;;8.17;70.14;100793.06;5009346;28;20061;-81
2022/11/26 03:38:19;;;;;;;172.90;12.07;;;;;;;8.15;70.35;100794.88;5009324;28;20054;-81
2022/11/26 03:40:54;;;;;;;193.50;14.00;;;;;;;8.11;71.15;100795.03;5009341;28;20062;-80
2022/11/26 03:43:21;;;;;;;197.00;13.00;;;;;;;8.12;70.15;100797.59;4992042;28;20122;-80
2022/11/26 03:45:47;;;;;;;127.00;11.00;;;;;;;8.10;70.13;100794.16;5009359;28;20061;-81
2022/11/26 03:48:14;;;;;;;217.70;13.75;;;;;;;8.10;70.38;100807.25;5009374;28;20064;-81
2022/11/26 03:50:40;;;;;;;195.18;13.85;;;;;;;8.08;70.34;100801.22;5009201;28;20520;-80
2022/11/26 03:53:07;;;;;;;144.13;11.85;;;;;;;8.07;70.42;100807.34;5009328;28;20112;-81
2022/11/26 03:55:33;;;;;;;96.90;10.98;;;;;;;8.06;70.40;100810.88;5008956;28;20057;-81
2022/11/26 03:58:00;;;;;;;211.98;14.38;;;;;;;8.06;70.35;100810.88;5009517;28;20057;-81
2022/11/26 04:00:26;;;;;;;77.40;9.77;;;;;;;8.06;70.53;100810.88;4991833;28;20054;-81
2022/11/26 04:02:52;;;;;;;143.52;11.80;;;;;;;8.06;70.71;100816.13;5009672;28;20422;-81
2022/11/26 04:05:19;;;;;;;86.15;10.35;;;;;;;8.05;70.52;100817.91;5009127;28;20101;-81
2022/11/26 04:07:45;;;;;;;111.43;10.55;;;;;;;8.06;70.42;100818.75;5009066;28;20053;-81
2022/11/26 04:10:12;;;;;;;78.90;9.95;;;;;;;8.06;70.58;100819.63;5009158;28;20057;-81
2022/11/26 04:12:38;;;;;;;201.38;16.10;;;;;;;8.06;70.39;100829.25;5009489;28;20077;-81
2022/11/26 04:15:06;;;;;;;163.63;13.27;;;;;;;8.07;70.52;100833.56;5009040;28;20053;-81
2022/11/26 04:17:32;;;;;;;162.60;13.75;;;;;;;8.06;70.63;100843.22;4991624;28;20058;-81
2022/11/26 04:19:58;;;;;;;112.40;13.82;;;;;;;8.04;70.71;100842.38;4992114;28;20492;-81
2022/11/26 04:22:25;;;;;;;204.13;16.27;;;;;;;8.02;70.49;100841.59;5012843;28;20058;-81
2022/11/26 04:24:51;;;;;;;267.80;18.48;;;;;;;8.01;70.77;100845.13;4994761;28;20500;-81
2022/11/26 04:27:18;;;;;;;205.55;14.70;;;;;;;7.99;70.73;100853.94;5012452;28;20058;-80
2022/11/26 04:29:44;;;;;;;205.75;16.70;;;;;;;7.97;70.65;100853.09;4994790;28;20104;-81
2022/11/26 04:32:10;;;;;;;237.90;16.20;;;;;;;7.97;71.01;100858.34;5012359;28;20053;-81
2022/11/26 04:34:37;;;;;;;222.88;14.18;;;;;;;7.94;70.86;100860.16;5012064;28;20645;-81
2022/11/26 04:37:04;;;;;;;219.85;15.90;;;;;;;7.93;71.11;100860.22;5012061;28;20057;-81
2022/11/26 04:39:30;;;;;;;255.90;17.10;;;;;;;7.95;71.17;100869.75;4994818;28;20058;-81
2022/11/26 04:41:57;;;;;;;166.57;13.43;;;;;;;7.92;71.27;100880.31;4994783;28;20046;-81
2022/11/26 04:44:23;;;;;;;136.68;13.05;;;;;;;7.92;71.08;100872.44;5012172;28;20065;-81
2022/11/26 04:46:50;;;;;;;210.05;15.20;;;;;;;7.92;71.23;100882.06;5011855;28;20054;-81
2022/11/26 04:49:16;;;;;;;251.50;16.63;;;;;;;7.89;71.42;100888.25;4994573;28;20050;-81
2022/11/26 04:51:43;;;;;;;141.65;12.02;;;;;;;7.89;71.21;100876.94;5012253;28;20070;-81
2022/11/26 04:54:09;;;;;;;173.30;13.68;;;;;;;7.89;71.00;100887.41;5072769;22;20048;-84
2022/11/26 04:59:21;;;;;;;172.18;14.07;;;;;;;7.86;71.39;100888.34;5011183;28;20061;-83
2022/11/26 05:01:47;;;;;;;158.30;13.50;;;;;;;7.85;71.24;100891.03;5011754;28;20061;-82
2022/11/26 05:04:14;;;;;;;240.10;16.58;;;;;;;7.84;71.20;100892.78;4995378;28;20058;-83
2022/11/26 05:06:40;;;;;;;169.45;15.43;;;;;;;7.82;71.25;100899.84;4995324;28;20133;-85
2022/11/26 05:09:07;;;;;;;121.03;12.65;;;;;;;7.81;71.31;100901.59;5012947;28;20057;-80
2022/11/26 05:11:33;;;;;;;176.38;15.27;;;;;;;7.82;71.34;100910.31;5012735;28;20058;-83
2022/11/26 05:14:00;;;;;;;156.68;12.55;;;;;;;7.80;71.50;100912.09;4995394;28;20076;-83
2022/11/26 05:16:26;;;;;;;59.75;11.50;;;;;;;7.81;71.45;100913.81;5012455;28;20064;-83
2022/11/26 05:18:53;;;;;;;201.35;15.02;;;;;;;7.80;71.41;100914.72;5012405;28;20050;-83
2022/11/26 05:21:19;;;;;;;249.18;16.50;;;;;;;7.79;71.36;100913.88;5012522;28;20083;-80
2022/11/26 05:23:46;;;;;;;251.27;18.25;;;;;;;7.79;71.28;100920.88;5012578;28;20058;-83
2022/11/26 05:26:12;;;;;;;265.42;18.58;;;;;;;7.79;71.56;100913.00;5012139;28;20429;-82
2022/11/26 05:28:39;;;;;;;242.40;15.85;;;;;;;7.77;71.55;100927.91;5012345;28;20092;-83
2022/11/26 05:31:05;;;;;;;229.98;16.77;;;;;;;7.75;71.26;100925.34;5012271;28;20140;-83
2022/11/26 05:33:32;;;;;;;225.85;15.68;;;;;;;7.73;71.33;100924.50;5012540;28;20054;-85
2022/11/26 05:35:59;;;;;;;208.93;17.33;;;;;;;7.72;71.61;100929.78;5012338;28;20100;-82
2022/11/26 05:38:26;;;;;;;210.45;14.98;;;;;;;7.69;71.63;100930.72;5012153;28;20050;-83
2022/11/26 05:40:52;;;;;;;162.35;15.93;;;;;;;7.68;71.37;100934.25;5012226;28;20049;-81
2022/11/26 05:43:19;;;;;;;162.60;13.73;;;;;;;7.66;71.38;100931.69;5011771;28;20054;-83
2022/11/26 05:45:46;;;;;;;215.00;15.93;;;;;;;7.65;71.33;100937.81;5027064;28;20137;-84
2022/11/26 05:48:12;;;;;;;239.07;17.13;;;;;;;7.64;71.33;100935.22;5010630;28;20108;-84
2022/11/26 05:50:39;;;;;;;139.23;13.55;;;;;;;7.62;71.69;100931.81;4994742;28;20093;-80
2022/11/26 05:53:06;;;;;;;143.63;13.65;;;;;;;7.63;71.41;100933.53;4994605;28;20422;-84
2022/11/26 05:55:32;;;;;;;208.10;17.25;;;;;;;7.60;71.63;100929.22;5011798;28;20057;-83
2022/11/26 05:57:59;;;;;;;163.35;15.15;;;;;;;7.61;71.44;100935.31;5011961;28;20065;-84
2022/11/26 06:00:26;;;;;;;175.00;15.38;;;;;;;7.59;71.61;100943.19;5011820;28;20157;-82
2022/11/26 06:02:52;;;;;;;168.00;15.20;;;;;;;7.58;71.47;100936.25;5012008;28;20149;-82
2022/11/26 06:05:19;;;;;;;126.82;15.18;;;;;;;7.56;71.79;100935.44;5011759;28;20080;-82
2022/11/26 06:07:46;;;;;;;55.97;11.68;;;;;;;7.57;71.74;100945.00;5011572;28;20094;-81
2022/11/26 06:10:12;;;;;;;277.08;18.42;;;;;;;7.56;71.82;100938.91;5011548;28;20414;-81
2022/11/26 06:12:39;;;;;;;253.82;18.33;;;;;;;7.57;71.77;100947.63;5011623;28;20046;-84
2022/11/26 06:15:06;;;;;;;281.92;21.70;;;;;;;7.57;71.78;100950.25;4993930;28;20141;-83
2022/11/26 06:17:33;;;;;;;288.15;22.95;;;;;;;7.55;71.58;100949.41;5011509;28;20068;-83
2022/11/26 06:19:59;;;;;;;260.45;19.60;;;;;;;7.53;71.89;100944.25;5011731;28;20088;-85
2022/11/26 06:22:26;;;;;;;277.25;21.70;;;;;;;7.53;71.79;100948.63;5011435;28;20140;-82
2022/11/26 06:24:52;;;;;;;311.90;19.90;;;;;;;7.51;72.05;100948.66;5011399;28;20064;-83
2022/11/26 06:27:19;;;;;;;320.88;21.98;;;;;;;7.50;72.20;100953.91;5011127;28;20145;-81
2022/11/26 06:29:45;;;;;;;257.40;20.27;;;;;;;7.50;71.91;100951.28;5011033;28;20072;-82
2022/11/26 06:32:12;;;;;;;317.90;20.33;;;;;;;7.51;71.96;100960.91;5011286;28;20585;-83
2022/11/26 06:34:38;;;;;;;310.38;21.20;;;;;;;7.49;71.90;100960.94;5011090;28;20590;-83
2022/11/26 06:37:09;;;;;;;412.15;25.52;;;;;;;7.50;72.16;100956.53;5011119;28;20058;-84
2022/11/26 06:39:35;;;;;;;226.93;19.10;;;;;;;7.51;72.27;100968.75;5011110;28;20466;-82
2022/11/26 06:42:02;;;;;;;220.60;19.35;;;;;;;7.50;71.86;100969.63;5010957;28;20577;-83
2022/11/26 06:44:28;;;;;;;119.93;15.48;;;;;;;7.50;72.10;100972.25;5010839;28;20060;-85
2022/11/26 06:46:55;;;;;;;161.75;16.90;;;;;;;7.49;71.96;100979.28;5010912;28;20077;-83
2022/11/26 06:49:21;;;;;;;174.40;18.08;;;;;;;7.49;72.20;100984.50;5010946;28;20494;-84
2022/11/26 06:51:48;;;;;;;184.18;18.67;;;;;;;7.48;72.09;100987.16;5011005;28;20049;-80
2022/11/26 06:54:15;;;;;;;273.70;21.85;;;;;;;7.48;72.24;100992.41;5010754;28;20536;-82
2022/11/26 06:56:41;;;;;;;253.85;19.42;;;;;;;7.49;71.99;101002.84;4993006;28;20480;-82
2022/11/26 06:59:07;;;;;;;228.57;17.27;;;;;;;7.49;72.16;100996.75;5011087;28;20465;-82
2022/11/26 07:01:34;;;;;;;216.68;18.67;;;;;;;7.49;72.33;100999.38;5009759;28;20161;-81
2022/11/26 07:04:01;;;;;;;198.18;18.52;;;;;;;7.50;71.99;101001.06;5009506;28;20514;-80
2022/11/26 07:06:29;;;;;;;265.40;23.38;;;;;;;7.48;72.22;101006.34;5010636;28;20619;-81
2022/11/26 07:08:58;;;;;;;276.58;21.35;;;;;;;7.48;71.98;101002.88;5010505;28;20140;-81
2022/11/26 07:11:25;;;;;;;224.95;19.08;;;;;;;7.48;72.05;101003.72;5010654;28;20149;-82
2022/11/26 07:13:52;;;;;;;217.02;19.20;;;;;;;7.48;72.51;100995.03;5010808;28;20174;-82
2022/11/26 07:16:19;;;;;;;286.33;21.98;;;;;;;7.48;72.20;100995.88;5010670;28;20053;-82
2022/11/26 07:18:51;;;;;;;163.40;15.60;;;;;;;7.48;72.55;100995.88;5010513;28;20072;-82
2022/11/26 07:21:24;;;;;;;164.43;15.52;;;;;;;7.50;71.93;101001.06;4994134;28;20054;-83
2022/11/26 07:23:51;;;;;;;177.82;15.77;;;;;;;7.52;71.75;100999.31;5010728;28;20053;-83
2022/11/26 07:26:19;;;;;;;120.63;15.07;;;;;;;7.50;72.06;100991.47;5010607;28;20060;-82
2022/11/26 07:28:46;;;;;;;172.27;18.38;;;;;;;7.52;72.19;101000.13;5010515;28;20050;-83
2022/11/26 07:31:15;;;;;;;162.57;15.82;;;;;;;7.52;71.83;100994.06;5010570;28;20054;-80
2022/11/26 07:33:44;;;;;;;315.92;22.27;;;;;;;7.51;72.00;101003.66;5010645;28;20100;-81
2022/11/26 07:36:15;;;;;;;227.73;20.25;;;;;;;7.50;72.59;101008.94;5010286;28;20046;-80
2022/11/26 07:38:41;;;;;;;238.10;19.55;;;;;;;7.50;72.02;101011.56;5010707;28;20054;-83
2022/11/26 07:41:11;;;;;;;270.05;21.33;;;;;;;7.48;72.34;101016.00;5010653;28;20059;-83
2022/11/26 07:43:39;;;;;;;360.80;23.90;;;;;;;7.46;72.17;101010.78;5010595;28;20065;-82
2022/11/26 07:46:08;;;;;;;217.35;20.27;;;;;;;7.45;72.62;101026.53;5010328;28;20061;-81
2022/11/26 07:48:37;;;;;;;216.27;20.20;;;;;;;7.45;72.28;101019.53;5010321;28;20062;-79
2022/11/26 07:51:03;;;;;;;164.38;16.67;;;;;;;7.45;72.24;101018.66;5010338;28;20058;-81
2022/11/26 07:53:31;;;;;;;247.13;19.98;;;;;;;7.46;72.38;101018.63;5010524;28;20053;-85
2022/11/26 07:55:58;;;;;;;218.75;19.50;;;;;;;7.48;72.77;101029.09;5012282;28;20061;-84
2022/11/26 07:58:25;;;;;;;235.13;19.55;;;;;;;7.49;72.77;101020.31;5013978;28;20068;-85
2022/11/26 08:00:52;;;;;;;258.60;21.15;;;;;;;7.51;72.60;101029.03;5014145;28;20120;-83
2022/11/26 08:03:20;;;;;;;179.18;18.00;;;;;;;7.52;72.60;101026.34;5012777;28;20133;-84
2022/11/26 08:05:47;;;;;;;237.50;22.08;;;;;;;7.54;72.63;101024.56;5014019;28;20061;-84
2022/11/26 08:08:13;;;;;;;300.17;22.75;;;;;;;7.56;72.74;101029.78;5013720;28;20487;-85
2022/11/26 08:10:40;;;;;;;317.02;24.38;;;;;;;7.58;72.70;101022.72;5013829;28;20053;-82
2022/11/26 08:13:07;;;;;;;243.90;19.95;;;;;;;7.60;72.63;101030.56;5014005;28;20050;-83
2022/11/26 08:15:34;;;;;;;255.15;22.50;;;;;;;7.62;73.00;101029.59;5013568;28;20050;-83
2022/11/26 08:18:00;;;;;;;254.30;22.42;;;;;;;7.63;72.78;101033.94;5013572;28;20093;-82
2022/11/26 08:20:27;;;;;;;264.60;23.35;;;;;;;7.65;72.80;101034.78;5012280;28;20524;-84
2022/11/26 08:22:54;;;;;;;233.88;20.65;;;;;;;7.68;72.77;101037.34;5013916;28;20053;-82
2022/11/26 08:25:21;;;;;;;243.23;22.67;;;;;;;7.71;72.90;101040.78;5013581;28;20061;-81
2022/11/26 08:27:47;;;;;;;336.63;25.95;;;;;;;7.71;72.89;101046.00;5013545;28;20084;-84
2022/11/26 08:30:14;;;;;;;225.40;20.55;;;;;;;7.72;72.95;101047.72;5013407;28;20050;-82
2022/11/26 08:32:41;;;;;;;147.10;19.25;;;;;;;7.72;73.02;101058.22;5028641;28;20161;-83
2022/11/26 08:35:07;;;;;;;131.65;19.48;;;;;;;7.72;72.98;101042.50;5013352;28;20068;-80
2022/11/26 08:37:34;;;;;;;162.82;19.20;;;;;;;7.74;73.01;101056.44;5013545;28;20058;-82
2022/11/26 08:40:00;;;;;;;137.93;18.55;;;;;;;7.75;72.89;101052.91;5013474;28;20062;-83
2022/11/26 08:42:27;;;;;;;138.57;19.38;;;;;;;7.78;72.87;101064.16;5013441;28;20054;-83
2022/11/26 08:44:53;;;;;;;197.13;20.90;;;;;;;7.81;73.28;101063.22;5013015;28;20058;-82
2022/11/26 08:47:20;;;;;;;148.55;17.65;;;;;;;7.85;72.96;101069.28;5013382;28;20409;-81
2022/11/26 08:49:48;;;;;;;73.30;16.92;;;;;;;7.89;72.97;101069.16;4995886;28;20057;-80
2022/11/26 08:52:15;;;;;;;104.05;16.85;;;;;;;7.93;72.97;101072.56;5013339;28;20069;-83
2022/11/26 08:54:41;;;;;;;99.85;16.08;;;;;;;7.95;73.35;101071.63;5012778;28;20505;-83
2022/11/26 08:57:11;;;;;;;153.50;16.63;;;;;;;8.00;73.08;101074.13;5012537;28;20054;-82
2022/11/26 08:59:37;;;;;;;82.20;15.65;;;;;;;8.04;73.24;101072.31;5013117;28;20058;-82
2022/11/26 09:02:04;;;;;;;96.22;17.52;;;;;;;8.05;73.06;101074.91;5012939;28;20523;-84
2022/11/26 09:04:30;;;;;;;172.57;17.15;;;;;;;8.09;72.87;101070.44;5012947;28;20077;-81
2022/11/26 09:06:57;;;;;;;115.80;16.60;;;;;;;8.12;73.18;101067.72;5012193;28;20569;-82
2022/11/26 09:09:24;;;;;;;142.90;16.48;;;;;;;8.15;72.92;101066.78;5012790;28;20054;-83
2022/11/26 09:11:53;;;;;;;220.98;20.80;;;;;;;8.15;72.50;101067.63;5012903;28;20050;-82
2022/11/26 09:14:23;;;;;;;158.98;18.40;;;;;;;8.17;72.94;101073.72;5012720;28;20060;-81
2022/11/26 09:16:51;;;;;;;184.65;19.75;;;;;;;8.20;72.47;101078.03;5012269;28;20066;-83
2022/11/26 09:19:18;;;;;;;78.00;16.42;;;;;;;8.20;72.32;101072.78;5012696;28;20057;-81
2022/11/26 09:21:45;;;;;;;103.30;17.85;;;;;;;8.21;72.89;101077.13;5012540;28;20498;-83
2022/11/26 09:24:13;;;;;;;103.47;17.02;;;;;;;8.21;72.64;101070.13;5012537;28;20080;-80
2022/11/26 09:26:39;;;;;;;113.93;16.00;;;;;;;8.24;72.91;101081.41;5012285;28;20111;-82
2022/11/26 09:29:06;;;;;;;139.52;18.60;;;;;;;8.25;72.93;101075.25;5012502;28;20049;-80
2022/11/26 09:31:33;;;;;;;155.85;18.15;;;;;;;8.28;73.00;101075.19;5012366;28;20077;-83
2022/11/26 09:34:00;;;;;;;238.38;21.02;;;;;;;8.30;73.10;101084.75;5012459;28;20422;-83
2022/11/26 09:36:27;;;;;;;206.50;21.02;;;;;;;8.32;72.81;101079.47;5012216;28;20133;-82
2022/11/26 09:38:55;;;;;;;165.30;18.90;;;;;;;8.36;73.26;101094.22;5012165;28;20056;-83
2022/11/26 09:41:45;;;;;;;275.25;22.48;;;;;;;8.36;73.70;101091.59;5012100;28;20058;-83
2022/11/26 09:44:40;;;;;;;128.65;17.42;;;;;;;8.41;73.49;101089.69;5012410;28;20133;-82
2022/11/26 09:47:34;;;;;;;68.80;15.85;;;;;;;8.45;73.13;101101.00;5011864;28;20090;-80
2022/11/26 09:50:10;;;;;;;77.22;15.75;;;;;;;8.52;72.84;101101.69;5012189;28;20054;-80
2022/11/26 09:52:49;;;;;;;84.10;15.90;;;;;;;8.52;72.96;101107.78;5012058;28;20089;-81
2022/11/26 09:55:20;;;;;;;164.98;20.58;;;;;;;8.54;72.86;101103.41;5011925;28;20070;-81
2022/11/26 09:58:11;;;;;;;95.72;16.95;;;;;;;8.55;73.07;101112.13;5011781;28;20053;-83
2022/11/26 10:00:44;;;;;;;235.13;21.85;;;;;;;8.58;72.74;101115.56;5011836;28;20525;-79
2022/11/26 10:03:31;;;;;;;152.68;19.40;;;;;;;8.58;73.10;101109.44;4994342;28;20050;-82
2022/11/26 10:06:15;;;;;;;115.32;16.67;;;;;;;8.60;73.09;101112.88;5011315;28;20081;-84
2022/11/26 10:09:06;;;;;;;135.70;18.25;;;;;;;8.62;73.13;101116.31;5011874;28;20062;-81
2022/11/26 10:11:39;;;;;;;135.38;19.40;;;;;;;8.66;73.00;101111.84;5011742;28;20140;-83
2022/11/26 10:14:23;;;;;;;102.78;19.40;;;;;;;8.67;72.78;101117.06;5010468;28;20058;-83
2022/11/26 10:16:57;;;;;;;95.15;19.30;;;;;;;8.70;72.35;101109.09;5011310;28;20060;-82
2022/11/26 10:19:50;;;;;;;108.32;19.48;;;;;;;8.70;72.93;101110.84;5011067;28;20062;-83
2022/11/26 10:22:31;;;;;;;185.02;24.27;;;;;;;8.72;73.24;101114.31;5011816;28;20057;-80
2022/11/26 10:24:59;;;;;;;41.95;17.83;;;;;;;8.78;72.50;101114.13;5010078;28;20088;-81
2022/11/26 10:27:32;;;;;;;62.58;20.02;;;;;;;8.79;72.71;101115.84;5011594;28;20060;-83
2022/11/26 10:30:08;;;;;;;81.75;19.73;;;;;;;8.83;72.81;101108.75;5011320;28;20505;-83
2022/11/26 10:32:40;;;;;;;65.25;20.48;;;;;;;8.89;72.96;101120.88;5011429;28;20050;-83
2022/11/26 10:35:18;;;;;;;94.60;20.77;;;;;;;8.90;72.82;101114.69;4993675;28;20060;-81
2022/11/26 10:37:44;;;;;;;106.82;21.90;;;;;;;8.93;72.57;101106.75;5011102;28;20085;-83
2022/11/26 10:40:24;;;;;;;59.65;21.80;;;;;;;8.91;72.87;101105.91;5011506;28;20054;-82
2022/11/26 10:43:08;;;;;;;119.80;21.88;;;;;;;8.94;72.94;101111.09;5011251;28;20084;-83
2022/11/26 10:45:36;;;;;;;96.22;21.92;;;;;;;8.98;72.56;101108.31;5011051;28;20066;-83
2022/11/26 10:48:22;;;;;;;78.63;21.92;;;;;;;8.98;73.01;101108.31;5010911;28;20146;-82
2022/11/26 10:51:08;;;;;;;104.53;23.00;;;;;;;9.02;73.11;101110.84;5011256;28;20054;-81
2022/11/26 10:53:56;;;;;;;76.05;22.35;;;;;;;9.03;72.97;101107.31;5011225;28;20509;-82
2022/11/26 10:56:34;;;;;;;132.85;24.30;;;;;;;9.07;72.58;101106.31;5129784;22;20064;-80
2022/11/26 10:59:13;;;;;;;106.57;22.25;;;;;;;9.11;72.62;101102.72;5049415;28;20056;-80
2022/11/26 11:01:40;;;;;;;122.45;23.20;;;;;;;9.14;72.39;101110.50;5049572;28;20204;-80
2022/11/26 11:04:24;;;;;;;104.80;25.60;;;;;;;9.14;72.99;101100.00;5049164;28;20055;-80
2022/11/26 11:06:50;;;;;;;128.82;25.80;;;;;;;9.22;72.31;101107.66;5028955;28;20058;-80
2022/11/26 11:09:36;;;;;;;119.35;26.75;;;;;;;9.20;72.51;101107.69;5029191;28;20058;-79
2022/11/26 11:12:19;;;;;;;82.50;26.10;;;;;;;9.21;72.86;101105.94;5029305;28;20060;-79
2022/11/26 11:14:46;;;;;;;;;;;;;;;9.24;72.90;101103.22;5029546;28;20088;-80
2022/11/26 11:17:31;;;;;;;68.85;23.02;;;;;;;9.24;72.87;101098.81;5027771;28;20353;-80
2022/11/26 11:20:05;;;;;;;52.90;24.35;;;;;;;9.30;72.48;101099.56;5021372;28;20120;-80
2022/11/26 11:22:32;;;;;;;53.13;25.20;;;;;;;9.32;72.32;101092.47;5029409;28;20057;-79
2022/11/26 11:24:59;;;;;;;52.72;26.90;;;;;;;9.36;72.84;101102.00;5029097;28;20064;-80
2022/11/26 11:27:45;;;;;;;61.10;28.95;;;;;;;9.35;72.63;101100.28;5029224;28;20131;-80
2022/11/26 11:30:26;;;;;;;52.17;27.50;;;;;;;9.37;73.13;101099.31;5014265;28;20053;-80